Terminal Aerodrome Forecast
Issued by NWS Albany, NY

Current Version | Previous Version | Text Only | Print | Product List | Glossary On
Versions: 1 2 3 4 5 6 7 8 9 10 11 12 13 14 15 16 17
187
FTUS41 KALY 270234 AAA
TAFPOU
TAF AMD
KPOU 270234Z 2703/2724 VRB03KT P6SM SCT100
     FM270800 00000KT 5SM HZ SCT045 BKN070 BKN100
     FM271300 19005KT P6SM SCT045 SCT100 SCT250=

USA.gov is the U.S. government's official web portal to all federal, state and local government web resources and services.